CSCL Fuzhou — ELYA7 — position and weather

sailwx.info

Track history (hours):
 
Tides and Currents Weather Stations Pressure Air Temp Water Temp Dewpoint Dewpoint Depression Visibility Wind Speed Wind Dir Waves Ship Positions

CSCL Fuzhou

Last reported at 2016-Feb-03 04:22 UTC. Time now 2016-Feb-13 08:55 UTC.
Position S 33°56' E 017°46'.
Warning: this ship's position is 10 days out of date.

Length 207.4 m; beam 29.8 m; draft 11.4 m.

Type: Ship (hazmat cat A). MMSI: 636016483.

Date/timePositionNaut miles runAvg speedWind from/ knotsBaromVisibWave heightAir tempDewpointWater temp
2016-Feb-03 04:22S 33°56' E 017°46'2915.7
2016-Feb-03 02:32S 34°18' E 018°08'8215.2
2016-Feb-02 21:10S 34°56' E 019°36'1115.6
2016-Feb-02 20:26S 35°01' E 019°49'63714.4
2016-Feb-01 00:13S 30°13' E 031°04'20 4.1
2016-Jan-31 19:17S 29°52' E 031°02'0 0.0
2016-Jan-31 18:32S 29°52' E 031°02'0 0.0
2016-Jan-31 17:32S 29°52' E 031°02'0 0.0
2016-Jan-31 16:32S 29°52' E 031°02'0 0.0
2016-Jan-31 15:32S 29°52' E 031°02'0 0.0
2016-Jan-31 14:32S 29°52' E 031°02'0 0.0
2016-Jan-31 13:32S 29°52' E 031°02'0 0.0
2016-Jan-31 12:32S 29°52' E 031°02'0 0.0
2016-Jan-31 11:32S 29°52' E 031°02'0 0.0
2016-Jan-31 10:32S 29°52' E 031°02'0 0.0
2016-Jan-31 09:32S 29°52' E 031°02'0 0.0
2016-Jan-31 08:32S 29°52' E 031°02'0 0.0
2016-Jan-31 07:32S 29°52' E 031°02'0 0.0
2016-Jan-31 06:32S 29°52' E 031°02'0 0.0
2016-Jan-31 05:32S 29°52' E 031°02'0 0.0
2016-Jan-31 04:32S 29°52' E 031°02'0 0.0
2016-Jan-31 03:32S 29°52' E 031°02'0 0.0
2016-Jan-31 02:32S 29°52' E 031°02'0 0.0
2016-Jan-31 01:32S 29°52' E 031°02'0 0.0
2016-Jan-31 00:29S 29°52' E 031°02'0 0.0
2016-Jan-30 23:32S 29°52' E 031°02'0 0.0
2016-Jan-30 22:32S 29°52' E 031°02'0 0.0
2016-Jan-30 21:32S 29°52' E 031°02'0 0.0
2016-Jan-30 20:32S 29°52' E 031°02'0 0.0
2016-Jan-30 19:32S 29°52' E 031°02'0 0.0
2016-Jan-30 18:29S 29°52' E 031°02'0 0.0
2016-Jan-30 17:32S 29°52' E 031°02'0 0.0
2016-Jan-30 16:32S 29°52' E 031°02'0 0.0
2016-Jan-30 15:32S 29°52' E 031°02'0 0.4
2016-Jan-30 14:34S 29°53' E 031°03'6 6.0
2016-Jan-30 13:33S 29°49' E 031°09'2 1.7
2016-Jan-30 12:33S 29°49' E 031°10'3 3.5
2016-Jan-30 11:33S 29°48' E 031°14'1212.1
2016-Jan-30 10:33S 29°44' E 031°28'1313.5
2016-Jan-30 09:33S 29°40' E 031°42'1313.2
2016-Jan-30 08:33S 29°36' E 031°57'6 6.2
2016-Jan-30 07:33S 29°36' E 032°04'1312.8
2016-Jan-30 06:33S 29°32' E 032°18'1313.0
2016-Jan-30 05:32S 29°28' E 032°33'1513.2
2016-Jan-30 04:25S 29°24' E 032°49'11 5.7
2016-Jan-30 02:33S 29°28' E 032°38'8 7.7
2016-Jan-30 01:33S 29°27' E 032°47'2913.5
2016-Jan-29 23:22S 29°17' E 033°19'  
Track history (hours):
 
Tides and Currents Weather Stations Pressure Air Temp Water Temp Dewpoint Dewpoint Depression Visibility Wind Speed Wind Dir Waves Ship Positions

CSCL Fuzhou

Last reported at 2016-Feb-03 04:22 UTC. Time now 2016-Feb-13 08:55 UTC.
Position S 33°56' E 017°46'.
Warning: this ship's position is 10 days out of date.

Length 207.4 m; beam 29.8 m; draft 11.4 m.

Type: Ship (hazmat cat A). MMSI: 636016483.

Date/timePositionNaut miles runAvg speedWind from/ knotsBaromVisibWave heightAir tempDewpointWater temp
2016-Feb-03 04:22S 33°56' E 017°46'2915.7
2016-Feb-03 02:32S 34°18' E 018°08'8215.2
2016-Feb-02 21:10S 34°56' E 019°36'1115.6
2016-Feb-02 20:26S 35°01' E 019°49'63714.4
2016-Feb-01 00:13S 30°13' E 031°04'20 4.1
2016-Jan-31 19:17S 29°52' E 031°02'0 0.0
2016-Jan-31 18:32S 29°52' E 031°02'0 0.0
2016-Jan-31 17:32S 29°52' E 031°02'0 0.0
2016-Jan-31 16:32S 29°52' E 031°02'0 0.0
2016-Jan-31 15:32S 29°52' E 031°02'0 0.0
2016-Jan-31 14:32S 29°52' E 031°02'0 0.0
2016-Jan-31 13:32S 29°52' E 031°02'0 0.0
2016-Jan-31 12:32S 29°52' E 031°02'0 0.0
2016-Jan-31 11:32S 29°52' E 031°02'0 0.0
2016-Jan-31 10:32S 29°52' E 031°02'0 0.0
2016-Jan-31 09:32S 29°52' E 031°02'0 0.0
2016-Jan-31 08:32S 29°52' E 031°02'0 0.0
2016-Jan-31 07:32S 29°52' E 031°02'0 0.0
2016-Jan-31 06:32S 29°52' E 031°02'0 0.0
2016-Jan-31 05:32S 29°52' E 031°02'0 0.0
2016-Jan-31 04:32S 29°52' E 031°02'0 0.0
2016-Jan-31 03:32S 29°52' E 031°02'0 0.0
2016-Jan-31 02:32S 29°52' E 031°02'0 0.0
2016-Jan-31 01:32S 29°52' E 031°02'0 0.0
2016-Jan-31 00:29S 29°52' E 031°02'0 0.0
2016-Jan-30 23:32S 29°52' E 031°02'0 0.0
2016-Jan-30 22:32S 29°52' E 031°02'0 0.0
2016-Jan-30 21:32S 29°52' E 031°02'0 0.0
2016-Jan-30 20:32S 29°52' E 031°02'0 0.0
2016-Jan-30 19:32S 29°52' E 031°02'0 0.0
2016-Jan-30 18:29S 29°52' E 031°02'0 0.0
2016-Jan-30 17:32S 29°52' E 031°02'0 0.0
2016-Jan-30 16:32S 29°52' E 031°02'0 0.0
2016-Jan-30 15:32S 29°52' E 031°02'0 0.4
2016-Jan-30 14:34S 29°53' E 031°03'6 6.0
2016-Jan-30 13:33S 29°49' E 031°09'2 1.7
2016-Jan-30 12:33S 29°49' E 031°10'3 3.5
2016-Jan-30 11:33S 29°48' E 031°14'1212.1
2016-Jan-30 10:33S 29°44' E 031°28'1313.5
2016-Jan-30 09:33S 29°40' E 031°42'1313.2
2016-Jan-30 08:33S 29°36' E 031°57'6 6.2
2016-Jan-30 07:33S 29°36' E 032°04'1312.8
2016-Jan-30 06:33S 29°32' E 032°18'1313.0
2016-Jan-30 05:32S 29°28' E 032°33'1513.2
2016-Jan-30 04:25S 29°24' E 032°49'11 5.7
2016-Jan-30 02:33S 29°28' E 032°38'8 7.7
2016-Jan-30 01:33S 29°27' E 032°47'2913.5
2016-Jan-29 23:22S 29°17' E 033°19'  

Dump ship's entire track history